MMMZ/MZT METAR and TAF weather

Enter ICAO airport designator
Station Type Date Time Source
MMMZ METAR 2022/11/26 08:47 UTC NOAA

MMMZ 260847Z 00000KT 10SM SKC 12/10 A2996 RMK SLP145 57003 910


Station Type Date Time Source
MMMZ Decoded METAR 2022/11/26 08:47 UTC NOAA

Mazatlan / G. Buelna, Mexico (MMMZ) 23-10N 106-16W
Nov 26, 2022 - 03:47 AM EST / 2022.11.26 0847 UTC
Wind: Calm:0
Visibility: 10 mile(s):0
Sky conditions: clear
Temperature: 53 F (12 C)
Dew Point: 50 F (10 C)
Relative Humidity: 87%
Pressure (altimeter): 29.96 in. Hg (1014 hPa)
Pressure tendency: 0.01 inches (0.3 hPa) lower than three hours ago
ob: MMMZ 260847Z 00000KT 10SM SKC 12/10 A2996 RMK SLP145 57003 910
cycle: 9

Station Type Date Time Source
MMMZ TAF 2022/11/26 06:43 UTC NOAA

TAF MMMZ 260336Z 2606/2712 34005KT P6SM SKC TX29/2621Z TN13/2612Z
FM261800 28012KT P6SM SCT250
FM270600 34005KT P6SM SKC

Example: see airport list